Time;durP1;ratioP1;P1;durP2;ratioP2;P2;SDS_P1;SDS_P2;PMS_P1;PMS_P2;Temp;Humidity;BMP_temperature;BMP_pressure;BME280_temperature;BME280_humidity;BME280_pressure;Samples;Min_cycle;Max_cycle;Signal;HPM_P1;HPM_P2
2023/02/05 00:00:42;;;;;;;5.78;3.75;;;15.10;68.40;;;;;;10443910;28;20321;-55
2023/02/05 00:05:43;;;;;;;7.25;3.42;;;15.20;68.50;;;;;;10443665;28;20503;-56
2023/02/05 00:10:49;;;;;;;7.65;4.03;;;15.10;68.40;;;;;;10443544;28;20120;-56
2023/02/05 00:15:50;;;;;;;5.28;3.47;;;15.10;68.20;;;;;;10421924;28;20412;-57
2023/02/05 00:20:50;;;;;;;6.80;3.33;;;15.10;68.30;;;;;;10397697;28;20061;-57
2023/02/05 00:25:51;;;;;;;5.55;3.45;;;15.10;68.30;;;;;;10402332;28;20045;-56
2023/02/05 00:30:52;;;;;;;6.55;4.05;;;15.10;68.40;;;;;;10402081;28;20040;-57
2023/02/05 00:35:52;;;;;;;5.35;3.33;;;15.10;68.40;;;;;;10401300;28;20029;-56
2023/02/05 00:40:53;;;;;;;5.25;3.60;;;15.00;68.40;;;;;;10402316;28;20049;-55
2023/02/05 00:45:54;;;;;;;7.38;3.70;;;15.10;68.40;;;;;;10442156;28;20057;-57
2023/02/05 00:50:55;;;;;;;5.75;3.90;;;15.00;68.40;;;;;;10440423;28;20025;-56
2023/02/05 00:55:55;;;;;;;8.27;5.53;;;15.00;68.40;;;;;;10424899;28;20371;-56
2023/02/05 01:00:56;;;;;;;6.63;4.07;;;15.00;68.40;;;;;;10442833;28;20104;-56
2023/02/05 01:05:58;;;;;;;5.80;3.40;;;15.00;68.40;;;;;;10441659;28;20438;-55
2023/02/05 01:11:00;;;;;;;4.97;3.58;;;15.00;68.50;;;;;;10442672;28;20392;-56
2023/02/05 01:16:00;;;;;;;5.32;2.95;;;15.00;68.50;;;;;;10443016;28;20020;-57
2023/02/05 01:21:01;;;;;;;5.43;3.25;;;15.00;68.60;;;;;;10427610;28;20049;-57
2023/02/05 01:26:02;;;;;;;5.85;4.13;;;15.00;68.60;;;;;;10441164;28;20025;-55
2023/02/05 01:31:03;;;;;;;5.80;3.08;;;15.00;68.70;;;;;;10457738;28;20033;-56
2023/02/05 01:36:04;;;;;;;6.70;3.35;;;15.00;68.60;;;;;;10442560;28;20017;-57
2023/02/05 01:41:08;;;;;;;5.13;2.90;;;14.90;68.60;;;;;;10441974;28;20033;-57
2023/02/05 01:46:28;;;;;;;6.03;4.07;;;15.00;68.50;;;;;;10442204;28;20029;-57
2023/02/05 01:51:30;;;;;;;6.28;3.20;;;15.00;68.60;;;;;;10439091;28;20041;-55
2023/02/05 01:56:41;;;;;;;5.68;3.63;;;14.90;68.50;;;;;;10440792;28;20091;-56
2023/02/05 02:01:43;;;;;;;4.57;3.45;;;14.90;68.60;;;;;;10440420;28;20025;-57
2023/02/05 02:06:43;;;;;;;5.63;3.63;;;14.90;68.50;;;;;;10440291;28;20092;-57
2023/02/05 02:11:44;;;;;;;4.82;3.88;;;14.90;68.60;;;;;;10447800;28;20036;-57
2023/02/05 02:16:45;;;;;;;4.93;3.22;;;14.90;68.60;;;;;;10449002;28;20017;-57
2023/02/05 02:22:31;;;;;;;5.10;3.30;;;14.90;68.70;;;;;;10418581;28;20045;-55
2023/02/05 02:27:53;;;;;;;5.05;2.90;;;14.90;68.60;;;;;;10407627;28;20030;-56
2023/02/05 02:33:26;;;;;;;4.93;3.15;;;14.80;68.60;;;;;;10406068;28;20022;-57
2023/02/05 02:38:42;;;;;;;4.65;2.90;;;14.80;68.60;;;;;;10405988;28;20033;-57
2023/02/05 02:44:22;;;;;;;7.57;2.67;;;14.80;68.60;;;;;;10430535;28;20112;-55
2023/02/05 02:49:36;;;;;;;6.13;2.90;;;14.80;68.60;;;;;;10427146;28;20041;-57
2023/02/05 02:54:40;;;;;;;4.47;3.38;;;14.80;68.70;;;;;;10447007;28;20013;-56
2023/02/05 02:59:44;;;;;;;3.80;2.30;;;14.80;68.70;;;;;;10446721;28;20121;-57
2023/02/05 03:04:53;;;;;;;4.32;2.55;;;14.80;68.80;;;;;;10446510;28;20017;-55
2023/02/05 03:10:22;;;;;;;3.90;2.63;;;14.80;68.80;;;;;;10445831;28;20134;-58
2023/02/05 03:15:23;;;;;;;5.15;2.40;;;14.80;68.80;;;;;;10447015;28;20375;-56
2023/02/05 03:20:30;;;;;;;4.10;2.60;;;14.80;68.80;;;;;;10427019;28;20045;-57
2023/02/05 03:25:30;;;;;;;3.55;2.45;;;14.80;68.80;;;;;;10404184;28;20036;-58
2023/02/05 03:31:02;;;;;;;4.00;2.58;;;14.80;68.80;;;;;;10405569;28;20457;-56
2023/02/05 03:36:51;;;;;;;4.53;2.40;;;14.80;68.80;;;;;;10404745;28;20022;-56
2023/02/05 03:42:07;;;;;;;4.78;2.83;;;14.80;68.80;;;;;;10410326;28;20445;-57
2023/02/05 03:47:36;;;;;;;5.72;3.05;;;14.70;68.70;;;;;;10445562;28;20055;-55
2023/02/05 03:52:49;;;;;;;6.10;2.93;;;14.70;68.60;;;;;;10442388;28;20076;-57
2023/02/05 03:58:01;;;;;;;4.75;2.80;;;14.70;68.70;;;;;;10443930;28;20033;-57
2023/02/05 04:03:01;;;;;;;4.75;2.45;;;14.70;68.70;;;;;;10444564;28;20354;-56
2023/02/05 04:08:03;;;;;;;3.60;2.67;;;14.70;68.70;;;;;;10444242;28;20384;-57
2023/02/05 04:13:04;;;;;;;3.80;2.45;;;14.70;68.70;;;;;;10444860;28;20718;-57
2023/02/05 04:18:04;;;;;;;4.40;2.83;;;14.70;68.70;;;;;;10443139;28;20041;-56
2023/02/05 04:23:05;;;;;;;4.45;2.70;;;14.70;68.70;;;;;;10430163;28;20384;-58
2023/02/05 04:28:06;;;;;;;7.15;3.42;;;14.70;68.70;;;;;;10443084;28;20112;-56
2023/02/05 04:33:07;;;;;;;3.70;2.25;;;14.90;68.30;;;;;;10442417;28;20028;-55
2023/02/05 04:38:07;;;;;;;4.22;2.28;;;15.20;67.40;;;;;;10444608;28;20363;-55
2023/02/05 04:43:08;;;;;;;3.45;1.90;;;15.40;67.40;;;;;;10425819;28;20500;-56
2023/02/05 04:48:09;;;;;;;4.40;2.00;;;15.60;66.20;;;;;;10442061;28;20515;-57
2023/02/05 04:53:09;;;;;;;3.42;2.58;;;15.80;65.50;;;;;;10439691;28;20041;-55
2023/02/05 04:58:10;;;;;;;3.63;1.88;;;16.10;64.80;;;;;;10443190;28;20564;-57
2023/02/05 05:03:10;;;;;;;3.00;2.03;;;16.20;64.30;;;;;;10442122;28;20053;-56
2023/02/05 05:08:11;;;;;;;3.90;1.98;;;16.40;63.90;;;;;;10441650;28;20139;-56
2023/02/05 05:13:12;;;;;;;3.33;2.10;;;16.50;63.70;;;;;;10442664;28;20108;-57
2023/02/05 05:18:13;;;;;;;3.38;2.00;;;16.60;63.50;;;;;;10428710;28;20413;-57
2023/02/05 05:23:13;;;;;;;3.22;2.05;;;16.60;63.40;;;;;;10401255;28;20049;-57
2023/02/05 05:28:15;;;;;;;3.60;1.80;;;16.60;63.30;;;;;;10400289;28;20021;-57
2023/02/05 05:33:16;;;;;;;3.03;1.80;;;16.70;63.20;;;;;;10399654;28;20037;-57
2023/02/05 05:38:16;;;;;;;3.92;2.92;;;16.80;63.10;;;;;;10399743;28;20068;-56
2023/02/05 05:48:39;;;;;;;2.90;2.13;;;16.80;63.10;;;;;;10450091;28;20029;-56
2023/02/05 05:53:40;;;;;;;3.28;1.63;;;16.80;63.20;;;;;;10448206;28;20037;-55
2023/02/05 05:58:41;;;;;;;2.92;1.60;;;16.80;63.40;;;;;;10448245;28;20074;-54
2023/02/05 06:03:42;;;;;;;2.72;1.48;;;16.70;63.40;;;;;;10448552;28;20075;-57
2023/02/05 06:08:42;;;;;;;3.60;1.77;;;16.70;63.70;;;;;;10449065;28;20079;-56
2023/02/05 06:13:43;;;;;;;1.67;1.35;;;16.60;63.80;;;;;;10461847;28;20039;-56
2023/02/05 06:18:44;;;;;;;2.75;1.80;;;16.60;64.10;;;;;;10417081;28;20046;-57
2023/02/05 06:23:44;;;;;;;7.10;1.60;;;16.50;64.60;;;;;;10410581;28;20116;-56
2023/02/05 06:28:45;;;;;;;5.93;2.03;;;16.50;65.00;;;;;;10410365;28;20377;-56
2023/02/05 06:33:46;;;;;;;7.03;2.53;;;16.50;65.30;;;;;;10424950;28;20453;-57
2023/02/05 06:38:47;;;;;;;9.13;2.17;;;16.50;66.30;;;;;;10411151;28;20053;-56
2023/02/05 06:43:48;;;;;;;9.43;2.40;;;16.50;66.10;;;;;;10433212;28;20096;-57
2023/02/05 06:48:49;;;;;;;9.65;2.00;;;16.50;65.90;;;;;;10450113;28;20033;-57
2023/02/05 06:53:51;;;;;;;6.10;2.33;;;16.60;65.40;;;;;;10449271;28;20045;-57
2023/02/05 06:58:52;;;;;;;11.40;1.85;;;16.70;66.40;;;;;;10450758;28;20021;-56
2023/02/05 07:03:54;;;;;;;23.98;2.80;;;16.70;67.10;;;;;;10443432;28;20167;-57
2023/02/05 07:08:55;;;;;;;11.80;2.28;;;16.60;68.10;;;;;;10430013;28;20010;-56
2023/02/05 07:13:58;;;;;;;10.73;2.00;;;16.40;68.20;;;;;;10428691;28;20018;-56
2023/02/05 07:18:59;;;;;;;11.40;2.03;;;16.30;68.40;;;;;;10416348;28;20586;-55
2023/02/05 07:24:00;;;;;;;19.75;5.60;;;16.30;67.90;;;;;;10445259;28;20031;-56
2023/02/05 07:29:01;;;;;;;9.13;2.25;;;16.20;67.60;;;;;;10445098;28;20021;-56
2023/02/05 07:34:02;;;;;;;6.78;1.20;;;16.20;67.80;;;;;;10406667;28;20474;-56
2023/02/05 07:39:03;;;;;;;7.63;2.13;;;16.00;67.90;;;;;;10402453;28;20045;-55
2023/02/05 07:44:04;;;;;;;6.97;2.08;;;16.00;68.10;;;;;;10431249;28;20030;-57
2023/02/05 07:49:04;;;;;;;5.90;1.80;;;15.90;68.10;;;;;;10417472;28;21129;-57
2023/02/05 07:54:11;;;;;;;10.73;1.80;;;15.90;68.00;;;;;;10404828;28;20108;-57
2023/02/05 07:59:12;;;;;;;5.85;1.98;;;15.80;68.00;;;;;;10404415;28;20029;-57
2023/02/05 08:04:12;;;;;;;5.20;1.50;;;15.90;67.80;;;;;;10405588;28;20025;-57
2023/02/05 08:09:13;;;;;;;5.13;1.05;;;15.90;67.60;;;;;;10404479;28;20033;-57
2023/02/05 08:14:14;;;;;;;6.90;2.00;;;15.90;67.30;;;;;;10403466;28;20089;-57
2023/02/05 08:19:16;;;;;;;5.70;1.40;;;16.00;67.00;;;;;;10403604;28;20135;-57
2023/02/05 08:24:17;;;;;;;4.75;1.08;;;16.00;66.70;;;;;;10403569;28;20017;-57
2023/02/05 08:29:18;;;;;;;6.22;2.28;;;16.10;66.60;;;;;;10404745;28;20140;-58
2023/02/05 08:34:18;;;;;;;8.15;1.52;;;16.10;66.40;;;;;;10403423;28;20096;-56
2023/02/05 08:39:19;;;;;;;4.68;1.25;;;16.10;66.50;;;;;;10402844;28;20021;-57
2023/02/05 08:44:20;;;;;;;6.00;1.50;;;16.00;66.60;;;;;;10428729;28;20017;-58
2023/02/05 08:49:20;;;;;;;10.45;2.33;;;15.90;67.10;;;;;;10426783;28;20041;-56
2023/02/05 08:54:21;;;;;;;8.32;2.13;;;16.00;67.00;;;;;;10443241;28;20036;-56
2023/02/05 08:59:22;;;;;;;8.88;1.40;;;16.10;67.20;;;;;;10443186;28;20462;-56
2023/02/05 09:04:23;;;;;;;11.93;2.15;;;16.10;67.10;;;;;;10428199;28;20017;-56
2023/02/05 09:09:23;;;;;;;5.93;1.58;;;16.10;67.70;;;;;;10420634;28;20045;-56
2023/02/05 09:14:24;;;;;;;17.42;1.98;;;16.20;67.90;;;;;;10423216;28;20017;-57
2023/02/05 09:19:24;;;;;;;7.40;2.20;;;16.20;67.60;;;;;;10438257;28;20049;-56
2023/02/05 09:24:25;;;;;;;17.05;2.58;;;16.20;67.70;;;;;;10442850;28;20085;-56
2023/02/05 09:29:28;;;;;;;17.92;3.05;;;16.20;68.10;;;;;;10444377;28;20029;-56
2023/02/05 09:34:31;;;;;;;29.52;4.13;;;16.00;67.80;;;;;;10442352;28;20104;-55
2023/02/05 09:39:31;;;;;;;14.00;2.60;;;16.00;67.40;;;;;;10443159;28;20461;-57
2023/02/05 09:45:26;;;;;;;12.52;3.17;;;16.00;67.10;;;;;;10427453;28;20104;-56
2023/02/05 09:50:29;;;;;;;20.20;3.28;;;16.10;66.40;;;;;;10430635;28;20045;-57
2023/02/05 09:55:34;;;;;;;15.20;2.88;;;16.10;66.20;;;;;;10442071;28;20105;-56
2023/02/05 10:00:46;;;;;;;13.02;2.70;;;16.10;66.30;;;;;;10439550;28;20195;-56
2023/02/05 10:06:07;;;;;;;8.27;2.40;;;16.00;66.50;;;;;;10439721;28;20361;-55
2023/02/05 10:11:48;;;;;;;8.23;2.03;;;15.90;66.70;;;;;;10440656;28;20476;-57
2023/02/05 10:17:04;;;;;;;8.73;2.35;;;15.90;66.90;;;;;;10441502;28;20013;-56
2023/02/05 10:22:55;;;;;;;5.70;1.63;;;15.90;67.10;;;;;;10428256;28;20056;-57
2023/02/05 10:28:21;;;;;;;9.95;2.28;;;15.90;67.10;;;;;;10392235;28;20042;-56
2023/02/05 10:33:45;;;;;;;6.90;1.50;;;15.90;67.00;;;;;;10408462;28;20033;-56
2023/02/05 10:38:47;;;;;;;6.15;1.60;;;15.80;67.10;;;;;;10408943;28;20021;-57
2023/02/05 10:43:55;;;;;;;9.45;1.77;;;15.90;67.00;;;;;;10431408;28;20013;-57
2023/02/05 10:49:05;;;;;;;9.30;1.75;;;15.90;66.90;;;;;;10446661;28;20342;-56
2023/02/05 10:54:18;;;;;;;7.10;1.90;;;15.90;67.00;;;;;;10408385;28;20033;-56
2023/02/05 10:59:27;;;;;;;5.72;1.98;;;15.80;67.10;;;;;;10407688;28;20075;-57
2023/02/05 11:04:38;;;;;;;;;;;15.90;67.40;;;;;;10407771;28;20167;-55
2023/02/05 11:09:39;;;;;;;7.95;1.67;;;15.90;66.90;;;;;;10408172;28;20292;-55
2023/02/05 11:14:44;;;;;;;6.85;2.13;;;15.90;67.00;;;;;;10406248;28;20021;-55
2023/02/05 11:20:04;;;;;;;5.90;1.88;;;15.80;67.10;;;;;;10418179;28;20053;-57
2023/02/05 11:25:15;;;;;;;4.60;1.30;;;15.80;67.10;;;;;;10446640;28;20033;-56
2023/02/05 11:30:36;;;;;;;6.15;1.27;;;15.90;67.00;;;;;;10447652;28;20497;-55
2023/02/05 11:35:37;;;;;;;5.70;1.75;;;15.90;67.00;;;;;;10446364;28;20025;-58
2023/02/05 11:40:38;;;;;;;6.07;2.72;;;15.80;67.00;;;;;;10445844;28;20032;-56
2023/02/05 11:45:38;;;;;;;6.05;1.20;;;15.90;67.00;;;;;;10446057;28;20132;-55
2023/02/05 11:50:43;;;;;;;9.73;1.38;;;15.90;66.60;;;;;;10444022;28;20428;-56
2023/02/05 11:55:50;;;;;;;4.80;1.48;;;16.00;66.30;;;;;;10433372;28;20380;-56
2023/02/05 12:01:05;;;;;;;6.00;1.52;;;16.00;66.30;;;;;;10445536;28;20547;-56
2023/02/05 12:06:22;;;;;;;3.72;0.98;;;16.00;66.50;;;;;;10445182;28;20017;-57
2023/02/05 12:12:02;;;;;;;4.30;0.95;;;15.90;66.60;;;;;;10444945;28;20502;-56
2023/02/05 12:17:27;;;;;;;6.43;1.20;;;15.90;66.70;;;;;;10458734;28;20049;-56
2023/02/05 12:22:55;;;;;;;4.32;1.23;;;15.90;66.50;;;;;;10404799;28;20053;-56
2023/02/05 12:28:13;;;;;;;4.57;0.98;;;15.90;66.50;;;;;;10404664;28;20026;-56
2023/02/05 12:33:23;;;;;;;3.90;1.50;;;15.90;66.70;;;;;;10404077;28;20401;-55
2023/02/05 12:39:07;;;;;;;3.03;1.10;;;15.90;66.70;;;;;;10404584;28;20534;-56
2023/02/05 12:44:39;;;;;;;1.85;0.80;;;16.00;66.40;;;;;;10430659;28;20025;-56
2023/02/05 12:50:01;;;;;;;4.32;1.00;;;16.10;66.30;;;;;;10442954;28;20033;-57
2023/02/05 12:55:25;;;;;;;4.85;1.65;;;16.00;66.50;;;;;;10444449;28;20353;-57
2023/02/05 13:00:36;;;;;;;5.05;1.25;;;15.90;66.70;;;;;;10443138;28;20427;-56
2023/02/05 13:05:46;;;;;;;3.55;0.80;;;15.90;66.90;;;;;;10444411;28;20057;-55
2023/02/05 13:11:04;;;;;;;5.57;1.10;;;15.80;67.10;;;;;;10442752;28;20067;-56
2023/02/05 13:16:11;;;;;;;6.57;1.20;;;15.70;67.30;;;;;;10443126;28;20051;-56
2023/02/05 13:32:10;;;;;;;2.28;0.90;;;15.60;67.80;;;;;;10401960;28;20041;-56
2023/02/05 13:37:33;;;;;;;3.33;1.23;;;15.70;67.50;;;;;;10401605;28;20025;-56
2023/02/05 13:43:18;;;;;;;5.28;1.08;;;15.70;68.10;;;;;;10416701;28;20053;-55
2023/02/05 13:48:38;;;;;;;2.78;0.82;;;15.60;67.60;;;;;;10398367;28;20092;-54
2023/02/05 13:54:07;;;;;;;4.40;1.17;;;15.60;68.00;;;;;;10427884;28;20511;-56
2023/02/05 13:59:32;;;;;;;3.55;1.02;;;15.50;67.70;;;;;;10442861;28;20028;-55
2023/02/05 14:04:40;;;;;;;3.50;1.33;;;15.50;67.60;;;;;;10418977;28;20378;-54
2023/02/05 14:09:48;;;;;;;3.80;0.98;;;15.50;68.30;;;;;;10418338;28;20115;-55
2023/02/05 14:15:14;;;;;;;2.33;0.65;;;15.50;67.70;;;;;;10411186;28;20215;-56
2023/02/05 14:20:23;;;;;;;3.90;1.15;;;15.50;67.60;;;;;;10426070;28;20044;-57
2023/02/05 14:25:44;;;;;;;3.47;0.93;;;15.50;68.40;;;;;;10419245;28;20361;-55
2023/02/05 14:30:47;;;;;;;2.85;0.93;;;15.40;68.70;;;;;;10408959;28;20021;-57
2023/02/05 14:35:48;;;;;;;2.33;0.90;;;15.40;68.80;;;;;;10424098;28;20025;-57
2023/02/05 14:41:16;;;;;;;5.13;0.93;;;15.40;68.40;;;;;;10408692;28;20022;-56
2023/02/05 14:46:38;;;;;;;4.13;1.33;;;15.40;68.30;;;;;;10408566;28;20449;-56
2023/02/05 14:51:47;;;;;;;2.78;1.10;;;15.50;68.00;;;;;;10409105;28;20033;-55
2023/02/05 14:56:52;;;;;;;2.97;0.90;;;15.50;67.60;;;;;;10406806;28;20080;-56
2023/02/05 15:01:54;;;;;;;3.70;0.82;;;15.70;67.30;;;;;;10406847;28;20047;-56
2023/02/05 15:06:59;;;;;;;4.18;0.70;;;15.70;67.00;;;;;;10406540;28;20120;-55
2023/02/05 15:12:06;;;;;;;4.22;0.90;;;15.70;67.00;;;;;;10406585;28;20477;-57
2023/02/05 15:17:09;;;;;;;2.80;0.70;;;15.80;66.80;;;;;;10407053;28;20083;-56
2023/02/05 15:22:38;;;;;;;3.33;0.70;;;15.80;66.90;;;;;;10407220;28;20065;-57
2023/02/05 15:27:48;;;;;;;2.40;0.50;;;15.80;66.80;;;;;;10405818;28;20022;-56
2023/02/05 15:32:59;;;;;;;2.10;0.68;;;15.90;66.60;;;;;;10405631;28;20026;-55
2023/02/05 15:38:31;;;;;;;2.95;0.77;;;15.90;66.50;;;;;;10433619;28;20021;-55
2023/02/05 15:43:32;;;;;;;3.13;0.73;;;15.90;66.40;;;;;;10440871;28;20442;-56
2023/02/05 15:48:38;;;;;;;2.47;0.80;;;16.00;66.10;;;;;;10447181;28;20090;-56
2023/02/05 15:53:49;;;;;;;2.47;0.70;;;16.00;66.20;;;;;;10445726;28;20458;-56
2023/02/05 15:58:59;;;;;;;1.45;0.60;;;15.90;66.20;;;;;;10446164;28;20037;-57
2023/02/05 16:04:00;;;;;;;1.70;0.60;;;15.90;66.40;;;;;;10429892;28;20093;-56
2023/02/05 16:09:01;;;;;;;3.45;0.77;;;15.80;66.60;;;;;;10409339;28;20026;-56
2023/02/05 16:14:25;;;;;;;2.75;0.75;;;15.80;66.50;;;;;;10426821;28;20503;-56
2023/02/05 16:19:52;;;;;;;11.52;1.00;;;15.90;66.20;;;;;;10424627;28;20045;-55
2023/02/05 16:25:00;;;;;;;4.00;1.00;;;16.10;65.70;;;;;;10441404;28;20055;-56
2023/02/05 16:30:10;;;;;;;9.45;1.20;;;16.50;64.60;;;;;;10435942;28;20041;-56
2023/02/05 16:35:29;;;;;;;7.97;1.60;;;16.90;63.50;;;;;;10440052;28;20060;-54
2023/02/05 16:40:41;;;;;;;7.18;2.40;;;17.00;62.80;;;;;;10442832;28;20048;-56
2023/02/05 16:46:05;;;;;;;10.85;2.90;;;17.00;62.60;;;;;;10428338;28;20021;-54
2023/02/05 16:51:34;;;;;;;11.73;3.53;;;17.00;62.60;;;;;;10425758;28;20029;-55
2023/02/05 16:56:44;;;;;;;13.38;3.70;;;17.10;65.20;;;;;;10404592;28;20056;-55
2023/02/05 17:01:45;;;;;;;14.65;3.67;;;17.20;64.70;;;;;;10403539;28;20022;-55
2023/02/05 17:06:45;;;;;;;10.75;3.47;;;17.20;65.00;;;;;;10402050;28;20022;-54
2023/02/05 17:11:46;;;;;;;8.55;2.42;;;17.00;65.00;;;;;;10401935;28;20033;-55
2023/02/05 17:17:14;;;;;;;12.38;3.08;;;17.00;65.10;;;;;;10400805;28;20060;-54
2023/02/05 17:22:14;;;;;;;12.32;2.88;;;16.90;66.60;;;;;;10412244;28;20425;-54
2023/02/05 17:27:23;;;;;;;6.85;2.28;;;16.80;65.30;;;;;;10401407;28;20022;-54
2023/02/05 17:32:25;;;;;;;11.65;2.97;;;16.80;65.30;;;;;;10401779;28;20460;-54
2023/02/05 17:37:26;;;;;;;10.07;2.90;;;16.80;65.30;;;;;;10400346;28;20030;-54
2023/02/05 17:42:28;;;;;;;8.45;2.20;;;16.70;65.30;;;;;;10422349;28;20037;-53
2023/02/05 17:47:29;;;;;;;9.25;2.42;;;16.70;65.30;;;;;;10432941;28;20472;-54
2023/02/05 17:52:29;;;;;;;11.73;2.90;;;16.60;65.20;;;;;;10447523;28;20128;-54
2023/02/05 17:57:32;;;;;;;7.47;2.42;;;16.70;65.70;;;;;;10449196;28;20560;-55
2023/02/05 18:02:33;;;;;;;10.18;3.03;;;16.70;65.10;;;;;;10437058;28;20525;-54
2023/02/05 18:07:51;;;;;;;8.43;2.40;;;16.70;65.00;;;;;;10407776;28;20017;-55
2023/02/05 18:12:54;;;;;;;5.47;3.03;;;16.60;64.90;;;;;;10408407;28;20037;-55
2023/02/05 18:17:55;;;;;;;5.00;2.15;;;16.60;65.00;;;;;;10429894;28;20017;-54
2023/02/05 18:22:55;;;;;;;7.60;2.88;;;16.70;64.80;;;;;;10431977;28;20053;-55
2023/02/05 18:27:56;;;;;;;5.72;2.00;;;16.80;64.90;;;;;;10431788;28;20026;-54
2023/02/05 18:32:57;;;;;;;6.78;1.85;;;16.80;64.80;;;;;;10428120;28;20057;-55
2023/02/05 18:37:58;;;;;;;6.90;1.85;;;16.80;64.80;;;;;;10436590;28;20136;-56
2023/02/05 18:42:59;;;;;;;11.63;3.95;;;16.70;64.80;;;;;;10431740;28;20021;-55
2023/02/05 18:48:00;;;;;;;8.45;1.50;;;16.70;64.80;;;;;;10443240;28;20384;-55
2023/02/05 18:53:00;;;;;;;6.97;1.83;;;16.70;65.00;;;;;;10441689;28;20053;-56
2023/02/05 18:58:03;;;;;;;5.07;1.80;;;16.70;64.70;;;;;;10440204;28;20025;-54
2023/02/05 19:03:03;;;;;;;7.60;2.10;;;16.70;64.60;;;;;;10444301;28;20029;-55
2023/02/05 19:08:04;;;;;;;6.32;1.98;;;16.80;64.60;;;;;;10431940;28;20105;-55
2023/02/05 19:13:05;;;;;;;4.07;1.75;;;16.70;64.80;;;;;;10404950;28;20037;-55
2023/02/05 19:18:06;;;;;;;5.57;1.52;;;16.60;65.00;;;;;;10404970;28;20100;-55
2023/02/05 19:23:06;;;;;;;3.88;1.52;;;16.50;65.20;;;;;;10404949;28;20049;-53
2023/02/05 19:28:08;;;;;;;5.82;1.52;;;16.40;65.40;;;;;;10430569;28;20025;-55
2023/02/05 19:33:08;;;;;;;4.90;1.40;;;16.30;65.60;;;;;;10435998;28;20052;-54
2023/02/05 19:38:09;;;;;;;5.80;1.55;;;16.20;65.90;;;;;;10425453;28;20102;-55
2023/02/05 19:43:10;;;;;;;3.97;1.92;;;16.10;65.70;;;;;;10435659;28;20021;-56
2023/02/05 19:48:11;;;;;;;5.43;1.40;;;16.00;66.20;;;;;;10437291;28;20063;-56
2023/02/05 19:53:12;;;;;;;6.93;2.10;;;15.90;66.30;;;;;;10448381;28;20656;-55
2023/02/05 19:58:13;;;;;;;5.70;2.03;;;15.90;66.60;;;;;;10435748;28;20105;-55
2023/02/05 20:03:14;;;;;;;6.43;1.63;;;15.80;66.70;;;;;;10410016;28;20017;-55
2023/02/05 20:08:14;;;;;;;5.15;2.10;;;15.80;66.80;;;;;;10432118;28;20041;-55
2023/02/05 20:13:15;;;;;;;4.70;1.33;;;15.80;66.90;;;;;;10418262;28;20132;-54
2023/02/05 20:18:16;;;;;;;5.63;1.77;;;15.70;66.90;;;;;;10404763;28;20104;-55
2023/02/05 20:23:17;;;;;;;4.97;2.40;;;15.70;67.00;;;;;;10428903;28;20540;-56
2023/02/05 20:28:26;;;;;;;7.30;2.90;;;15.70;66.90;;;;;;10627934;27;20116;-53
2023/02/05 20:33:27;;;;;;;4.60;1.45;;;15.70;67.10;;;;;;10582323;28;20024;-53
2023/02/05 20:38:27;;;;;;;5.70;1.58;;;15.60;67.10;;;;;;10569978;28;20343;-54
2023/02/05 20:43:28;;;;;;;6.88;2.45;;;15.60;67.10;;;;;;10569537;27;20112;-53
2023/02/05 20:48:29;;;;;;;6.55;2.40;;;15.60;67.10;;;;;;10576305;28;20107;-53
2023/02/05 20:53:30;;;;;;;5.55;1.98;;;15.50;67.00;;;;;;10565523;28;20403;-53
2023/02/05 20:58:31;;;;;;;4.60;1.75;;;15.50;67.10;;;;;;10542063;28;20083;-53
2023/02/05 21:03:32;;;;;;;6.10;1.85;;;15.50;67.20;;;;;;10546508;28;20095;-54
2023/02/05 21:08:36;;;;;;;5.97;2.10;;;15.40;67.10;;;;;;10546788;28;20358;-56
2023/02/05 21:13:36;;;;;;;7.25;2.53;;;15.40;67.20;;;;;;10563380;28;20023;-55
2023/02/05 21:18:39;;;;;;;9.60;3.55;;;15.30;67.10;;;;;;10546295;28;20040;-55
2023/02/05 21:23:41;;;;;;;5.30;3.17;;;15.30;67.20;;;;;;10562905;28;20019;-55
2023/02/05 21:28:41;;;;;;;11.50;5.15;;;15.30;67.20;;;;;;10562567;28;20036;-56
2023/02/05 21:33:42;;;;;;;8.32;4.22;;;15.20;67.00;;;;;;10562612;28;20026;-57
2023/02/05 21:38:43;;;;;;;9.10;4.60;;;15.20;67.10;;;;;;10523063;28;20103;-56
2023/02/05 21:43:49;;;;;;;9.35;4.88;;;15.20;67.00;;;;;;10534008;28;20126;-56
2023/02/05 21:48:53;;;;;;;8.32;4.03;;;15.10;67.00;;;;;;10533829;28;20039;-55
2023/02/05 21:53:58;;;;;;;5.93;3.63;;;15.10;67.00;;;;;;10516939;28;20073;-56
2023/02/05 21:58:58;;;;;;;11.05;3.53;;;15.10;67.30;;;;;;10530359;28;20086;-56
2023/02/05 22:04:12;;;;;;;9.95;3.28;;;15.10;67.30;;;;;;10516337;28;20459;-56
2023/02/05 22:09:15;;;;;;;6.10;3.80;;;15.00;66.70;;;;;;10533343;28;20371;-54
2023/02/05 22:14:16;;;;;;;9.48;4.03;;;15.00;66.70;;;;;;10533154;28;20020;-56
2023/02/05 22:19:16;;;;;;;6.68;2.80;;;15.00;66.50;;;;;;10532501;28;20020;-55
2023/02/05 22:24:21;;;;;;;6.65;3.00;;;14.90;66.40;;;;;;10515686;28;20031;-56
2023/02/05 22:29:22;;;;;;;7.63;3.25;;;14.90;66.50;;;;;;10499160;28;20038;-56
2023/02/05 22:34:22;;;;;;;8.02;2.95;;;14.90;66.50;;;;;;10515282;28;20039;-56
2023/02/05 22:39:23;;;;;;;8.50;3.28;;;14.90;66.60;;;;;;10531794;28;20114;-56
2023/02/05 22:44:24;;;;;;;10.68;3.92;;;14.90;66.70;;;;;;10514946;28;20023;-56
2023/02/05 22:49:24;;;;;;;7.95;3.47;;;14.90;66.70;;;;;;10531868;28;20059;-56
2023/02/05 22:54:25;;;;;;;6.70;2.80;;;14.80;66.80;;;;;;10531338;28;20052;-56
2023/02/05 22:59:26;;;;;;;9.82;2.95;;;14.80;66.80;;;;;;10531406;28;20103;-56
2023/02/05 23:04:26;;;;;;;11.43;3.60;;;14.80;67.10;;;;;;10532258;28;20016;-56
2023/02/05 23:09:27;;;;;;;5.45;2.45;;;14.80;66.90;;;;;;10532187;28;20046;-56
2023/02/05 23:14:28;;;;;;;5.70;2.50;;;14.80;67.40;;;;;;10513839;28;20510;-54
2023/02/05 23:19:28;;;;;;;5.78;2.67;;;14.80;67.70;;;;;;10517279;28;20024;-55
2023/02/05 23:24:29;;;;;;;5.18;2.63;;;14.80;67.80;;;;;;10531299;28;20127;-55
2023/02/05 23:29:30;;;;;;;4.35;1.85;;;14.70;67.60;;;;;;10513285;28;20103;-55
2023/02/05 23:34:30;;;;;;;6.10;2.05;;;14.70;67.90;;;;;;10531082;28;20391;-56
2023/02/05 23:39:31;;;;;;;10.35;3.08;;;14.70;67.30;;;;;;10512750;28;20024;-55
2023/02/05 23:44:32;;;;;;;6.55;3.13;;;14.70;66.70;;;;;;10530822;28;20024;-56
2023/02/05 23:49:32;;;;;;;4.18;1.83;;;14.70;66.60;;;;;;10529544;28;20353;-56
2023/02/05 23:54:33;;;;;;;6.85;3.10;;;14.70;66.70;;;;;;10530562;28;20624;-54
2023/02/05 23:59:34;;;;;;;5.72;2.50;;;14.70;66.50;;;;;;10511732;28;20111;-56
